Time;durP1;ratioP1;P1;durP2;ratioP2;P2;SDS_P1;SDS_P2;PMS_P1;PMS_P2;Temp;Humidity;BMP_temperature;BMP_pressure;BME280_temperature;BME280_humidity;BME280_pressure;Samples;Min_cycle;Max_cycle;Signal;HPM_P1;HPM_P2
2023/09/27 00:00:09;;;;;;;19.02;16.88;;;;;;;14.49;100.00;101930.91;4928748;29;20044;-77
2023/09/27 00:02:42;;;;;;;18.25;16.35;;;;;;;14.48;100.00;101929.13;4933505;28;20051;-77
2023/09/27 00:05:11;;;;;;;19.50;17.42;;;;;;;14.47;100.00;101930.00;4930449;29;20786;-77
2023/09/27 00:07:41;;;;;;;21.35;17.25;;;;;;;14.43;100.00;101926.47;4961462;28;20074;-77
2023/09/27 00:10:09;;;;;;;21.38;18.13;;;;;;;14.42;100.00;101927.31;4927948;29;20054;-77
2023/09/27 00:12:38;;;;;;;21.55;17.90;;;;;;;14.39;100.00;101927.31;4930669;29;20067;-77
2023/09/27 00:15:08;;;;;;;21.45;17.98;;;;;;;14.37;100.00;101935.28;4941046;29;20043;-78
2023/09/27 00:17:35;;;;;;;21.73;17.75;;;;;;;14.36;100.00;101941.44;4888503;29;20059;-76
2023/09/27 00:20:05;;;;;;;18.52;16.63;;;;;;;14.36;100.00;101949.38;4939545;29;20048;-77
2023/09/27 00:22:32;;;;;;;20.88;18.75;;;;;;;14.36;100.00;101949.38;4950868;29;20055;-77
2023/09/27 00:25:00;;;;;;;23.67;17.80;;;;;;;14.35;100.00;101955.59;4957262;29;20054;-76
2023/09/27 00:27:27;;;;;;;22.75;18.60;;;;;;;14.36;100.00;101961.78;4965101;29;20051;-78
2023/09/27 00:29:55;;;;;;;20.10;18.02;;;;;;;14.34;100.00;101960.88;4936070;29;20124;-78
2023/09/27 00:32:22;;;;;;;19.30;17.10;;;;;;;14.32;100.00;101962.63;4897688;29;20055;-77
2023/09/27 00:34:49;;;;;;;25.60;17.92;;;;;;;14.31;100.00;101968.81;4948681;29;20056;-78
2023/09/27 00:37:17;;;;;;;19.63;17.42;;;;;;;14.30;100.00;101982.97;4928414;29;20048;-78
2023/09/27 00:39:45;;;;;;;23.00;19.40;;;;;;;14.29;100.00;101974.13;4933227;29;20051;-77
2023/09/27 00:42:12;;;;;;;23.48;19.25;;;;;;;14.27;100.00;101965.25;4944628;29;20059;-78
2023/09/27 00:44:40;;;;;;;23.48;18.73;;;;;;;14.27;100.00;101967.03;4916737;29;20059;-77
2023/09/27 00:47:08;;;;;;;21.08;18.70;;;;;;;14.25;100.00;101964.34;4905096;29;20331;-78
2023/09/27 00:49:36;;;;;;;20.65;18.13;;;;;;;14.24;100.00;101959.94;4946254;29;20057;-78
2023/09/27 00:52:04;;;;;;;25.65;19.85;;;;;;;14.21;100.00;101959.91;4947717;29;20058;-78
2023/09/27 00:54:42;;;;;;;20.60;18.40;;;;;;;14.20;100.00;101961.69;4936724;29;20063;-78
2023/09/27 00:57:10;;;;;;;21.58;19.35;;;;;;;14.19;100.00;101965.19;4934295;29;20058;-77
2023/09/27 00:59:38;;;;;;;24.40;19.50;;;;;;;14.19;100.00;101959.03;4955168;29;20062;-77
2023/09/27 01:02:07;;;;;;;25.17;19.48;;;;;;;14.20;100.00;101960.81;4921705;28;20055;-77
2023/09/27 01:04:34;;;;;;;21.55;18.58;;;;;;;14.17;100.00;101963.44;4956421;29;20407;-77
2023/09/27 01:07:02;;;;;;;23.85;20.65;;;;;;;14.16;100.00;101961.69;4951556;29;20044;-77
2023/09/27 01:09:32;;;;;;;22.70;19.85;;;;;;;14.16;100.00;101959.03;4949683;29;20047;-78
2023/09/27 01:11:59;;;;;;;22.35;19.60;;;;;;;14.14;100.00;101958.09;4961602;28;20051;-77
2023/09/27 01:14:28;;;;;;;22.20;19.55;;;;;;;14.13;100.00;101962.53;4947462;29;20063;-77
2023/09/27 01:16:55;;;;;;;21.92;19.38;;;;;;;14.13;100.00;101962.53;4933669;28;20524;-76
2023/09/27 01:19:23;;;;;;;25.63;19.90;;;;;;;14.12;100.00;101955.47;4956001;28;20690;-77
2023/09/27 01:21:50;;;;;;;27.23;20.23;;;;;;;14.12;100.00;101966.06;4962298;28;20047;-76
2023/09/27 01:24:19;;;;;;;23.20;19.95;;;;;;;14.10;100.00;101951.91;4946605;29;20043;-77
2023/09/27 01:26:47;;;;;;;21.77;19.58;;;;;;;14.10;100.00;101959.88;4951038;29;20051;-77
2023/09/27 01:29:14;;;;;;;26.77;21.52;;;;;;;14.08;100.00;101958.94;4965183;29;20047;-77
2023/09/27 01:31:41;;;;;;;24.02;21.15;;;;;;;14.08;100.00;101961.59;4949790;29;20058;-76
2023/09/27 01:34:09;;;;;;;22.17;19.70;;;;;;;14.08;100.00;101958.06;4913794;29;20057;-76
2023/09/27 01:36:37;;;;;;;22.60;20.30;;;;;;;14.06;100.00;101958.06;4949016;29;20051;-77
2023/09/27 01:39:07;;;;;;;22.63;20.15;;;;;;;14.06;100.00;101959.81;4978258;28;20070;-76
2023/09/27 01:41:34;;;;;;;22.02;19.67;;;;;;;14.04;100.00;101954.50;4965980;29;20061;-77
2023/09/27 01:44:02;;;;;;;21.33;19.10;;;;;;;14.03;100.00;101964.22;4911621;29;20058;-77
2023/09/27 01:46:29;;;;;;;22.70;19.83;;;;;;;14.02;100.00;101962.44;4958027;29;20063;-77
2023/09/27 01:48:58;;;;;;;23.65;19.52;;;;;;;13.99;100.00;101969.50;4931101;29;20055;-77
2023/09/27 01:51:25;;;;;;;27.83;21.48;;;;;;;13.98;100.00;101968.59;4930504;29;20063;-77
2023/09/27 01:53:53;;;;;;;25.92;20.85;;;;;;;13.96;100.00;101965.06;4953102;29;20499;-76
2023/09/27 01:56:20;;;;;;;23.33;19.95;;;;;;;13.94;100.00;101960.63;4958183;29;20549;-77
2023/09/27 01:58:48;;;;;;;24.15;20.55;;;;;;;13.94;100.00;101972.13;4955977;29;20050;-77
2023/09/27 02:01:15;;;;;;;25.58;20.90;;;;;;;13.94;100.00;101958.00;4937306;28;20078;-77
2023/09/27 02:03:44;;;;;;;26.45;19.95;;;;;;;13.92;100.00;101962.41;4964839;29;20055;-77
2023/09/27 02:06:12;;;;;;;24.05;20.33;;;;;;;13.90;100.00;101959.72;4907594;29;20083;-77
2023/09/27 02:08:40;;;;;;;23.73;19.77;;;;;;;13.87;100.00;101970.28;4941313;29;20066;-76
2023/09/27 02:11:07;;;;;;;25.80;20.73;;;;;;;13.87;100.00;101964.13;4965602;29;20062;-77
2023/09/27 02:13:35;;;;;;;28.02;21.63;;;;;;;13.84;100.00;101971.16;4929608;29;20051;-77
2023/09/27 02:16:02;;;;;;;22.05;19.77;;;;;;;13.83;100.00;101979.09;4949846;29;20043;-77
2023/09/27 02:18:30;;;;;;;25.05;21.38;;;;;;;13.82;100.00;101980.00;4940611;29;20047;-77
2023/09/27 02:20:58;;;;;;;24.63;21.98;;;;;;;13.83;100.00;101981.75;4940802;28;20056;-77
2023/09/27 02:23:27;;;;;;;26.23;20.92;;;;;;;13.81;100.00;101979.06;4920822;29;20420;-76
2023/09/27 02:25:58;;;;;;;26.95;20.85;;;;;;;13.81;100.00;101979.06;4967224;28;20058;-77
2023/09/27 02:28:25;;;;;;;23.63;20.15;;;;;;;13.79;100.00;101975.53;4957270;29;20043;-77
2023/09/27 02:30:53;;;;;;;22.65;20.20;;;;;;;13.77;100.00;101974.63;4950070;29;20047;-76
2023/09/27 02:33:21;;;;;;;27.63;20.85;;;;;;;13.75;100.00;101959.63;4962456;29;20057;-77
2023/09/27 02:35:48;;;;;;;24.60;20.73;;;;;;;13.73;100.00;101953.41;4914105;29;20052;-77
2023/09/27 02:38:15;;;;;;;22.10;19.73;;;;;;;13.71;100.00;101961.34;4955149;29;20409;-77
2023/09/27 02:40:43;;;;;;;30.48;22.70;;;;;;;13.71;100.00;101969.28;4964020;29;20054;-77
2023/09/27 02:43:10;;;;;;;25.48;20.90;;;;;;;13.70;100.00;101974.56;4941485;28;20061;-77
2023/09/27 02:45:38;;;;;;;24.50;20.92;;;;;;;13.70;100.00;101966.63;4947630;29;20055;-76
2023/09/27 02:48:05;;;;;;;25.63;21.23;;;;;;;13.68;100.00;101958.66;4945492;29;20082;-77
2023/09/27 02:50:33;;;;;;;24.70;21.25;;;;;;;13.66;100.00;101960.41;4949617;29;20045;-76
2023/09/27 02:53:00;;;;;;;29.92;22.98;;;;;;;13.64;100.00;101956.88;4944192;28;20058;-77
2023/09/27 02:55:28;;;;;;;22.88;20.45;;;;;;;13.63;100.00;101956.00;4931415;29;20062;-78
2023/09/27 02:57:55;;;;;;;27.00;22.63;;;;;;;13.62;100.00;101953.31;4946301;29;20052;-77
2023/09/27 03:00:23;;;;;;;24.77;21.23;;;;;;;13.61;100.00;101963.03;4954422;29;20326;-78
2023/09/27 03:02:52;;;;;;;23.90;21.38;;;;;;;13.59;100.00;101970.09;4964287;29;20055;-76
2023/09/27 03:05:21;;;;;;;23.48;20.55;;;;;;;13.57;100.00;101966.53;4959960;29;20047;-76
2023/09/27 03:07:49;;;;;;;23.77;20.92;;;;;;;13.56;100.00;101972.69;4936589;28;20046;-76
2023/09/27 03:10:16;;;;;;;25.30;21.25;;;;;;;13.54;100.00;101966.50;4949225;29;20414;-77
2023/09/27 03:12:48;;;;;;;25.23;21.13;;;;;;;13.53;100.00;101967.38;4948208;29;20055;-77
2023/09/27 03:15:15;;;;;;;25.45;21.02;;;;;;;13.51;100.00;101965.59;4947656;28;20047;-77
2023/09/27 03:17:44;;;;;;;32.78;26.48;;;;;;;13.49;100.00;101965.56;4935101;29;20058;-78
2023/09/27 03:20:18;;;;;;;26.90;22.73;;;;;;;13.47;100.00;101955.84;4939864;29;20062;-76
2023/09/27 03:22:48;;;;;;;25.02;22.35;;;;;;;13.45;100.00;101956.72;4903609;29;20051;-76
2023/09/27 03:25:19;;;;;;;28.65;23.33;;;;;;;13.44;100.00;101954.06;4956655;29;20418;-77
2023/09/27 03:27:47;;;;;;;27.42;23.63;;;;;;;13.44;100.00;101960.25;4958228;29;20052;-77
2023/09/27 03:30:16;;;;;;;27.10;24.20;;;;;;;13.45;100.00;101961.13;4974662;28;20055;-76
2023/09/27 03:32:44;;;;;;;27.40;24.50;;;;;;;13.45;100.00;101961.13;4945779;28;20062;-77
2023/09/27 03:35:12;;;;;;;26.38;23.25;;;;;;;13.46;100.00;101965.56;4934947;29;20055;-77
2023/09/27 03:37:40;;;;;;;27.52;23.85;;;;;;;13.44;100.00;101962.00;4927175;29;20051;-76
2023/09/27 03:40:13;;;;;;;30.40;24.65;;;;;;;13.44;100.00;101959.38;4945566;28;20055;-77
2023/09/27 03:42:43;;;;;;;27.73;23.10;;;;;;;13.44;100.00;101960.25;4935097;28;20051;-77
2023/09/27 03:45:14;;;;;;;32.20;24.33;;;;;;;13.44;100.00;101948.78;4950790;28;20558;-77
2023/09/27 03:47:44;;;;;;;26.98;23.95;;;;;;;13.44;100.00;101947.00;4966237;28;20298;-77
2023/09/27 03:50:16;;;;;;;26.58;23.45;;;;;;;13.44;100.00;101952.31;4941219;28;20050;-76
2023/09/27 03:52:44;;;;;;;33.47;24.40;;;;;;;13.46;100.00;101949.69;4946711;29;20050;-76
2023/09/27 03:55:12;;;;;;;30.10;24.60;;;;;;;13.46;100.00;101949.69;4936349;28;20040;-77
2023/09/27 03:57:41;;;;;;;26.45;23.48;;;;;;;13.45;100.00;101951.41;4943659;29;20051;-77
2023/09/27 04:00:17;;;;;;;29.48;24.00;;;;;;;13.45;100.00;101951.41;4942416;28;20077;-77
2023/09/27 04:02:47;;;;;;;27.75;24.67;;;;;;;13.43;100.00;101952.28;4929592;29;20051;-76
2023/09/27 04:05:18;;;;;;;27.98;22.50;;;;;;;13.42;100.00;101954.06;4958614;28;20082;-77
2023/09/27 04:07:46;;;;;;;26.20;23.40;;;;;;;13.42;100.00;101967.28;4935182;29;20058;-77
2023/09/27 04:10:16;;;;;;;30.77;24.00;;;;;;;13.42;100.00;101971.66;4920370;29;20039;-77
2023/09/27 04:12:44;;;;;;;28.35;24.67;;;;;;;13.42;100.00;101969.94;4944644;29;20051;-76
2023/09/27 04:15:11;;;;;;;26.65;23.35;;;;;;;13.41;100.00;101964.63;4939240;29;20058;-76
2023/09/27 04:17:39;;;;;;;29.63;24.23;;;;;;;13.41;100.00;101980.50;4928184;28;20058;-77
2023/09/27 04:20:18;;;;;;;29.42;23.20;;;;;;;13.37;100.00;101974.28;4942997;28;20051;-77
2023/09/27 04:22:48;;;;;;;31.40;25.05;;;;;;;13.35;100.00;101976.03;4932384;29;20070;-77
2023/09/27 04:25:17;;;;;;;31.70;25.38;;;;;;;13.32;100.00;101972.47;4943977;28;20043;-77
2023/09/27 04:27:47;;;;;;;31.42;25.95;;;;;;;13.30;100.00;101971.53;4962104;28;20043;-77
2023/09/27 04:30:15;;;;;;;32.70;27.95;;;;;;;13.29;100.00;101969.75;4949561;29;20075;-77
2023/09/27 04:32:44;;;;;;;30.40;25.75;;;;;;;13.27;100.00;101960.06;4933542;29;20059;-77
2023/09/27 04:35:13;;;;;;;27.58;24.60;;;;;;;13.26;100.00;101962.69;4958183;29;20039;-77
2023/09/27 04:37:41;;;;;;;30.13;25.35;;;;;;;13.24;100.00;101957.34;4920332;29;20052;-77
2023/09/27 04:40:12;;;;;;;29.95;24.27;;;;;;;13.25;100.00;101963.53;4932030;28;20063;-78
2023/09/27 04:42:41;;;;;;;;;;;;;;;13.23;100.00;101976.78;4937005;29;20055;-77
2023/09/27 04:45:10;;;;;;;29.52;25.58;;;;;;;13.22;100.00;101982.94;4936487;29;19923;-77
2023/09/27 04:47:38;;;;;;;29.40;24.77;;;;;;;13.22;100.00;101979.41;4961449;29;20044;-78
2023/09/27 04:50:09;;;;;;;29.77;24.20;;;;;;;13.21;100.00;101975.88;4949119;28;20054;-78
2023/09/27 04:52:38;;;;;;;28.65;24.52;;;;;;;13.19;100.00;101969.66;4917895;29;20059;-77
2023/09/27 04:55:07;;;;;;;33.25;25.80;;;;;;;13.18;100.00;101977.59;4938021;29;20051;-78
2023/09/27 04:57:35;;;;;;;30.50;24.10;;;;;;;13.14;100.00;101975.81;4928280;28;20059;-78
2023/09/27 05:00:04;;;;;;;30.58;22.77;;;;;;;13.12;100.00;101994.31;4946757;29;20047;-78
2023/09/27 05:02:31;;;;;;;32.95;25.60;;;;;;;13.11;100.00;102004.88;4941208;29;20058;-78
2023/09/27 05:04:59;;;;;;;27.33;24.08;;;;;;;13.10;100.00;102009.28;4949432;29;20035;-78
2023/09/27 05:07:26;;;;;;;28.85;24.98;;;;;;;13.08;100.00;102011.03;4968012;28;20081;-78
2023/09/27 05:09:53;;;;;;;29.27;25.00;;;;;;;13.09;100.00;102010.13;4918889;28;20065;-77
2023/09/27 05:12:21;;;;;;;32.47;24.67;;;;;;;13.07;100.00;102012.75;4909754;29;20052;-78
2023/09/27 05:14:48;;;;;;;30.50;25.48;;;;;;;13.08;100.00;102024.25;4957230;28;20062;-79
2023/09/27 05:17:16;;;;;;;27.15;23.95;;;;;;;13.07;100.00;102033.06;4933100;28;20062;-78
2023/09/27 05:19:44;;;;;;;30.70;24.95;;;;;;;13.06;100.00;102024.22;4949071;28;20510;-78
2023/09/27 05:22:12;;;;;;;28.38;23.27;;;;;;;13.06;100.00;102032.16;4952245;28;20069;-78
2023/09/27 05:24:40;;;;;;;31.40;24.08;;;;;;;13.05;100.00;102040.09;4923145;28;20059;-78
2023/09/27 05:27:07;;;;;;;33.08;26.10;;;;;;;13.05;100.00;102045.38;4934073;29;20506;-78
2023/09/27 05:29:35;;;;;;;28.20;23.92;;;;;;;13.05;100.00;102050.66;4918862;28;20039;-78
2023/09/27 05:32:03;;;;;;;39.75;27.08;;;;;;;13.02;100.00;102046.25;4915980;29;20066;-78
2023/09/27 05:34:31;;;;;;;29.70;24.63;;;;;;;13.03;100.00;102049.75;4895693;29;20066;-81
2023/09/27 05:37:01;;;;;;;31.63;24.50;;;;;;;13.02;100.00;102051.53;4920421;29;20055;-81
2023/09/27 05:39:29;;;;;;;30.08;26.15;;;;;;;13.04;100.00;102051.53;4958558;28;20422;-78
2023/09/27 05:41:56;;;;;;;37.50;26.35;;;;;;;13.04;100.00;102043.59;4930349;28;20046;-78
2023/09/27 05:44:23;;;;;;;35.05;25.73;;;;;;;13.06;100.00;102048.03;4863560;29;20062;-77
2023/09/27 05:46:51;;;;;;;32.45;26.80;;;;;;;13.07;100.00;102055.09;4961674;28;20056;-77
2023/09/27 05:49:19;;;;;;;32.05;25.20;;;;;;;13.11;100.00;102063.09;4932718;29;20116;-78
2023/09/27 05:51:46;;;;;;;31.08;25.25;;;;;;;13.14;100.00;102060.50;4946276;29;20222;-77
2023/09/27 05:54:13;;;;;;;31.65;26.63;;;;;;;13.17;100.00;102050.78;4948604;29;20058;-79
2023/09/27 05:56:45;;;;;;;30.73;25.58;;;;;;;13.22;100.00;102041.16;4922332;29;20047;-77
2023/09/27 05:59:14;;;;;;;34.50;25.45;;;;;;;13.25;100.00;102038.56;4932313;29;20066;-78
2023/09/27 06:01:42;;;;;;;30.90;24.95;;;;;;;13.31;100.00;102039.50;4893834;28;20043;-78
2023/09/27 06:04:10;;;;;;;31.17;26.25;;;;;;;13.36;100.00;102021.94;4949087;28;20050;-78
2023/09/27 06:06:39;;;;;;;32.80;24.45;;;;;;;13.42;100.00;102016.69;4918263;28;20409;-79
2023/09/27 06:09:09;;;;;;;30.30;25.65;;;;;;;13.47;100.00;102000.84;4950906;28;20525;-77
2023/09/27 06:11:36;;;;;;;31.05;25.27;;;;;;;13.51;100.00;101998.25;4934820;28;20081;-77
2023/09/27 06:14:10;;;;;;;29.98;24.63;;;;;;;13.57;100.00;101990.38;4931568;28;20054;-78
2023/09/27 06:16:39;;;;;;;31.60;25.10;;;;;;;13.62;100.00;102001.00;4893024;28;20533;-77
2023/09/27 06:19:09;;;;;;;28.50;23.88;;;;;;;13.66;100.00;102000.16;4922796;29;20055;-77
2023/09/27 06:21:37;;;;;;;31.88;24.33;;;;;;;13.71;100.00;102009.03;4942871;28;20070;-78
2023/09/27 06:24:06;;;;;;;28.58;24.70;;;;;;;13.75;100.00;102008.19;4945104;28;20059;-78
2023/09/27 06:26:34;;;;;;;29.48;24.27;;;;;;;13.79;100.00;102011.75;4918163;29;20055;-78
2023/09/27 06:29:01;;;;;;;27.55;23.70;;;;;;;13.84;100.00;102015.31;4904594;29;20051;-77
2023/09/27 06:31:29;;;;;;;28.17;23.77;;;;;;;13.88;100.00;102014.47;4922361;28;20050;-78
2023/09/27 06:33:57;;;;;;;31.00;24.17;;;;;;;13.92;100.00;102002.13;4951338;28;20074;-78
2023/09/27 06:36:29;;;;;;;25.98;23.20;;;;;;;13.94;100.00;102003.91;4945260;28;20047;-78
2023/09/27 06:38:57;;;;;;;29.42;24.80;;;;;;;14.01;100.00;102010.16;4943851;28;20061;-78
2023/09/27 06:41:28;;;;;;;31.02;25.08;;;;;;;14.05;100.00;102009.31;4950439;28;20043;-79
2023/09/27 06:44:00;;;;;;;27.63;23.17;;;;;;;14.09;100.00;102011.09;4930008;28;20055;-78
2023/09/27 06:46:28;;;;;;;29.42;24.27;;;;;;;14.13;100.00;101999.63;4917833;29;20125;-78
2023/09/27 06:49:12;;;;;;;30.75;23.95;;;;;;;14.20;100.00;102001.47;4894756;29;20054;-78
2023/09/27 06:51:39;;;;;;;29.98;25.15;;;;;;;14.29;100.00;102012.97;4964821;28;20099;-80
2023/09/27 06:54:07;;;;;;;31.52;22.05;;;;;;;14.35;100.00;102010.41;4967694;28;20059;-78
2023/09/27 06:56:35;;;;;;;29.15;22.73;;;;;;;14.38;100.00;102021.88;4921166;29;20046;-78
2023/09/27 06:59:02;;;;;;;34.63;23.05;;;;;;;14.39;100.00;102023.66;4930586;28;20043;-78
2023/09/27 07:01:30;;;;;;;27.33;23.65;;;;;;;14.40;100.00;102020.16;4926689;28;20074;-78
2023/09/27 07:03:58;;;;;;;27.00;20.88;;;;;;;14.45;100.00;102035.19;4907795;29;20062;-78
2023/09/27 07:06:25;;;;;;;28.15;21.48;;;;;;;14.49;100.00;102044.94;4956085;28;20039;-78
2023/09/27 07:08:57;;;;;;;24.77;21.48;;;;;;;14.54;100.00;102048.53;4916528;28;20055;-78
2023/09/27 07:11:25;;;;;;;26.40;22.52;;;;;;;14.61;100.00;102045.03;4980813;28;20047;-77
2023/09/27 07:13:53;;;;;;;26.85;21.55;;;;;;;14.66;100.00;102035.34;4958155;28;20047;-78
2023/09/27 07:16:29;;;;;;;27.67;22.33;;;;;;;14.78;100.00;102042.47;4931074;28;20054;-78
2023/09/27 07:19:00;;;;;;;30.65;20.67;;;;;;;14.91;100.00;102040.75;4921073;29;20734;-78
2023/09/27 07:21:29;;;;;;;29.67;21.85;;;;;;;14.99;100.00;102036.41;4897544;29;20059;-78
2023/09/27 07:23:58;;;;;;;26.87;21.10;;;;;;;15.07;100.00;102047.91;4938059;28;20043;-78
2023/09/27 07:26:26;;;;;;;28.48;20.90;;;;;;;15.12;100.00;102048.84;4958725;28;20295;-79
2023/09/27 07:28:54;;;;;;;24.92;20.52;;;;;;;15.19;100.00;102039.09;4964934;28;20094;-78
2023/09/27 07:31:23;;;;;;;25.15;21.00;;;;;;;15.27;100.00;102037.34;4892827;29;20051;-79
2023/09/27 07:33:54;;;;;;;26.98;21.35;;;;;;;15.44;100.00;102029.41;4930201;29;20560;-78
2023/09/27 07:36:26;;;;;;;28.30;19.30;;;;;;;15.69;100.00;102032.09;4896150;29;20051;-78
2023/09/27 07:38:58;;;;;;;22.30;19.70;;;;;;;16.05;100.00;102038.34;4950824;29;20086;-78
2023/09/27 07:41:25;;;;;;;26.83;19.42;;;;;;;16.40;100.00;102035.66;4934177;29;20051;-79
2023/09/27 07:43:53;;;;;;;22.60;18.00;;;;;;;16.79;100.00;102036.44;4934283;29;20047;-79
2023/09/27 07:46:21;;;;;;;22.63;17.90;;;;;;;17.20;100.00;102032.75;4911239;29;20425;-79
2023/09/27 07:48:49;;;;;;;19.55;17.15;;;;;;;17.45;100.00;102030.81;4932253;29;20066;-79
2023/09/27 07:51:21;;;;;;;19.95;17.70;;;;;;;17.51;100.00;102030.75;4894772;29;20067;-79
2023/09/27 07:53:49;;;;;;;22.20;17.17;;;;;;;17.48;100.00;102040.53;4963292;28;20055;-78
2023/09/27 07:56:24;;;;;;;22.75;17.52;;;;;;;17.39;100.00;102036.19;4934229;29;20043;-79
2023/09/27 07:58:53;;;;;;;25.08;18.20;;;;;;;17.30;100.00;102037.09;4955146;28;20055;-77
2023/09/27 08:01:23;;;;;;;19.50;17.38;;;;;;;17.23;100.00;102054.00;4923749;28;20055;-78
2023/09/27 08:03:52;;;;;;;20.40;18.23;;;;;;;17.22;100.00;102051.34;4948706;28;20051;-77
2023/09/27 08:06:23;;;;;;;19.02;17.02;;;;;;;17.23;100.00;102055.81;4895689;29;20039;-77
2023/09/27 08:08:51;;;;;;;23.02;17.77;;;;;;;17.26;100.00;102058.47;4942088;28;20046;-78
2023/09/27 08:11:20;;;;;;;18.90;16.75;;;;;;;17.31;100.00;102059.28;4933630;29;20059;-78
2023/09/27 08:13:49;;;;;;;21.70;17.92;;;;;;;17.40;100.00;102059.25;4934310;28;20051;-79
2023/09/27 08:16:17;;;;;;;22.17;17.95;;;;;;;17.56;100.00;102053.81;4905192;29;20055;-78
2023/09/27 08:18:45;;;;;;;23.35;18.48;;;;;;;17.71;100.00;102048.38;4907586;29;20063;-78
2023/09/27 08:21:12;;;;;;;21.00;16.48;;;;;;;17.83;100.00;102047.41;4874041;28;22526;-78
2023/09/27 08:23:41;;;;;;;23.55;16.83;;;;;;;17.97;100.00;102052.66;4911176;29;20055;-79
2023/09/27 08:26:12;;;;;;;26.73;18.05;;;;;;;18.22;100.00;102051.56;4952637;28;20054;-78
2023/09/27 08:28:40;;;;;;;18.77;15.93;;;;;;;18.54;100.00;102049.44;4926157;29;20446;-79
2023/09/27 08:31:09;;;;;;;18.88;16.02;;;;;;;18.82;100.00;102050.94;4925274;28;21817;-78
2023/09/27 08:33:36;;;;;;;17.58;15.63;;;;;;;19.08;100.00;102057.75;4910401;28;20379;-78
2023/09/27 08:36:05;;;;;;;19.15;16.10;;;;;;;19.33;100.00;102050.28;4914407;28;20055;-78
2023/09/27 08:38:33;;;;;;;19.58;15.75;;;;;;;19.56;100.00;102043.69;4908350;28;20051;-79
2023/09/27 08:41:01;;;;;;;17.67;14.68;;;;;;;19.74;100.00;102035.44;4922186;28;20050;-79
2023/09/27 08:43:34;;;;;;;;;;;;;;;19.86;100.00;102037.88;4938850;28;20046;-79
2023/09/27 08:46:04;;;;;;;16.67;14.80;;;;;;;19.98;100.00;102046.63;4951426;28;19926;-79
2023/09/27 08:48:32;;;;;;;17.38;15.32;;;;;;;20.00;100.00;102043.03;4955110;28;20046;-79
2023/09/27 08:51:04;;;;;;;18.27;15.25;;;;;;;20.04;100.00;102049.22;4896157;28;20046;-79
2023/09/27 08:53:34;;;;;;;22.80;15.80;;;;;;;20.01;100.00;102042.09;4905845;29;20047;-79
2023/09/27 08:56:04;;;;;;;21.67;16.23;;;;;;;20.00;100.00;102051.06;4912096;28;20062;-79
2023/09/27 08:58:34;;;;;;;18.83;15.35;;;;;;;20.01;100.00;102058.16;4943786;28;20050;-79
2023/09/27 09:01:03;;;;;;;23.02;15.45;;;;;;;20.08;100.00;102061.63;4941056;28;20051;-79
2023/09/27 09:03:31;;;;;;;19.45;15.32;;;;;;;20.08;100.00;102050.91;4931697;28;20042;-79
2023/09/27 09:05:59;;;;;;;19.02;14.90;;;;;;;20.01;100.00;102050.13;4923408;28;20062;-79
2023/09/27 09:08:27;;;;;;;20.83;15.23;;;;;;;19.98;100.00;102060.00;4862624;28;20058;-79
2023/09/27 09:11:11;;;;;;;19.90;16.20;;;;;;;19.98;100.00;102068.94;4956814;28;20049;-79
2023/09/27 09:14:03;;;;;;;19.45;16.02;;;;;;;20.02;100.00;102072.44;4942980;29;20557;-79
2023/09/27 09:16:44;;;;;;;23.73;15.77;;;;;;;20.06;100.00;102075.03;4932218;29;20055;-78
2023/09/27 09:19:23;;;;;;;17.93;14.27;;;;;;;20.11;100.00;102079.41;4931260;29;20058;-78
2023/09/27 09:22:00;;;;;;;19.02;14.23;;;;;;;20.10;100.00;102077.66;4946283;28;20786;-77
2023/09/27 09:24:27;;;;;;;23.58;14.93;;;;;;;20.08;100.00;102085.72;4880382;29;20059;-77
2023/09/27 09:27:09;;;;;;;20.35;15.02;;;;;;;20.10;100.00;102075.84;4956241;28;20079;-77
2023/09/27 09:29:46;;;;;;;18.88;13.57;;;;;;;20.15;100.00;102084.69;4925838;28;20059;-77
2023/09/27 09:32:18;;;;;;;23.58;14.65;;;;;;;20.19;100.00;102085.53;4930213;28;20047;-77
2023/09/27 09:34:50;;;;;;;20.95;13.93;;;;;;;20.21;100.00;102081.03;4934283;28;20044;-77
2023/09/27 09:37:20;;;;;;;18.15;13.45;;;;;;;20.24;100.00;102089.91;4917029;28;20054;-76
2023/09/27 09:39:52;;;;;;;21.25;12.73;;;;;;;20.27;100.00;102085.41;4909937;28;20043;-77
2023/09/27 09:42:32;;;;;;;17.23;11.25;;;;;;;20.30;100.00;102082.66;4950430;28;20406;-77
2023/09/27 09:45:07;;;;;;;17.48;12.43;;;;;;;20.28;100.00;102088.03;4953172;28;20390;-78
2023/09/27 09:47:37;;;;;;;19.60;13.40;;;;;;;20.28;100.00;102079.13;4932960;28;20055;-78
2023/09/27 09:50:07;;;;;;;;;;;;;;;20.29;100.00;102070.19;4943562;28;20524;-77
2023/09/27 09:52:38;;;;;;;17.30;11.93;;;;;;;20.30;100.00;102078.16;4920184;29;20285;-77
2023/09/27 09:55:08;;;;;;;16.75;11.18;;;;;;;20.30;100.00;102067.47;4905420;28;20043;-77
2023/09/27 09:58:06;;;;;;;18.15;11.43;;;;;;;20.34;100.00;102073.66;4928388;29;20043;-77
2023/09/27 10:00:35;;;;;;;19.85;12.32;;;;;;;20.35;100.00;102081.66;4948987;29;20078;-77
2023/09/27 10:03:04;;;;;;;17.05;11.77;;;;;;;20.37;100.00;102070.91;4916336;29;20093;-78
2023/09/27 10:05:38;;;;;;;17.13;11.60;;;;;;;20.44;100.00;102069.91;4946362;28;20058;-78
2023/09/27 10:08:07;;;;;;;16.45;10.70;;;;;;;20.49;100.00;102070.72;4925290;28;20062;-77
2023/09/27 10:10:37;;;;;;;14.27;10.10;;;;;;;20.53;100.00;102064.38;4877025;29;20051;-77
2023/09/27 10:13:08;;;;;;;17.75;10.30;;;;;;;20.57;100.00;102066.09;4930267;28;20047;-78
2023/09/27 10:15:37;;;;;;;12.70;8.38;;;;;;;20.63;100.00;102070.47;4935269;28;20080;-77
2023/09/27 10:18:28;;;;;;;11.02;7.88;;;;;;;20.66;100.00;102058.81;4929443;28;20556;-77
2023/09/27 10:21:05;;;;;;;14.55;7.65;;;;;;;20.71;100.00;102047.09;4945395;29;20048;-76
2023/09/27 10:23:57;;;;;;;11.85;7.45;;;;;;;20.71;100.00;102043.53;4937209;28;20047;-77
2023/09/27 10:26:27;;;;;;;12.15;7.97;;;;;;;20.75;100.00;102039.88;4897266;29;20372;-78
2023/09/27 10:29:01;;;;;;;10.32;6.97;;;;;;;20.79;100.00;102029.09;4934695;29;20048;-78
2023/09/27 10:31:36;;;;;;;8.70;5.95;;;;;;;20.87;100.00;102039.63;4953620;28;20517;-78
2023/09/27 10:34:25;;;;;;;13.35;6.25;;;;;;;20.96;100.00;102034.09;4939411;29;20051;-78
2023/09/27 10:36:54;;;;;;;10.25;6.07;;;;;;;21.03;100.00;102024.97;4939691;28;20486;-78
2023/09/27 10:40:18;;;;;;;11.05;5.72;;;;;;;21.09;100.00;102025.78;4953795;28;20059;-77
2023/09/27 10:42:45;;;;;;;13.52;6.75;;;;;;;21.14;100.00;102015.84;4895857;29;20494;-77
2023/09/27 10:45:13;;;;;;;11.98;5.85;;;;;;;21.14;100.00;102010.47;4903779;29;20055;-77
2023/09/27 10:47:41;;;;;;;11.48;5.65;;;;;;;21.11;100.00;102006.03;4933405;29;20054;-77
2023/09/27 10:50:10;;;;;;;11.80;6.03;;;;;;;21.07;100.00;102006.16;4942049;28;20055;-77
2023/09/27 10:52:39;;;;;;;8.52;4.88;;;;;;;21.04;100.00;102007.13;4922834;28;21344;-77
2023/09/27 10:55:11;;;;;;;9.10;5.18;;;;;;;21.01;100.00;101991.97;4917993;28;20054;-78
2023/09/27 10:57:41;;;;;;;9.15;5.20;;;;;;;20.96;100.00;101985.88;4906089;28;20059;-76
2023/09/27 11:00:12;;;;;;;8.63;5.43;;;;;;;20.94;100.00;101974.25;4947197;28;20055;-77
2023/09/27 11:02:41;;;;;;;10.70;5.68;;;;;;;20.93;100.00;101967.16;4924183;29;20059;-78
2023/09/27 11:05:11;;;;;;;11.02;7.53;;;;;;;20.92;100.00;101961.84;4923707;28;20611;-77
2023/09/27 11:07:48;;;;;;;8.82;6.60;;;;;;;20.93;100.00;101945.72;4921915;28;20058;-77
2023/09/27 11:10:32;;;;;;;11.82;6.57;;;;;;;20.95;100.00;101945.69;4939326;28;20055;-78
2023/09/27 11:13:12;;;;;;;11.35;6.85;;;;;;;20.95;100.00;101934.97;4952396;28;20051;-78
2023/09/27 11:15:41;;;;;;;7.38;5.97;;;;;;;20.95;100.00;101943.91;4898813;29;20047;-79